Time;durP1;ratioP1;P1;durP2;ratioP2;P2;SDS_P1;SDS_P2;PMS_P1;PMS_P2;Temp;Humidity;BMP_temperature;BMP_pressure;BME280_temperature;BME280_humidity;BME280_pressure;Samples;Min_cycle;Max_cycle;Signal;HPM_P1;HPM_P2
2023/09/21 00:00:27;;;;;;;7.72;4.05;;;15.90;99.90;;;;;;4891814;29;20417;-68
2023/09/21 00:02:59;;;;;;;5.57;3.67;;;15.90;99.90;;;;;;4870817;29;20045;-68
2023/09/21 00:05:32;;;;;;;6.05;3.20;;;15.90;99.90;;;;;;4888932;29;20064;-68
2023/09/21 00:07:59;;;;;;;;;;;15.80;99.90;;;;;;4893647;29;20040;-68
2023/09/21 00:10:32;;;;;;;6.05;3.40;;;15.80;99.90;;;;;;4900655;29;19935;-68
2023/09/21 00:13:00;;;;;;;4.28;3.88;;;15.80;99.90;;;;;;4890872;29;20047;-68
2023/09/21 00:15:32;;;;;;;8.65;4.00;;;15.90;99.90;;;;;;4866993;29;20449;-68
2023/09/21 00:18:05;;;;;;;5.60;2.97;;;15.80;99.90;;;;;;4891923;29;20424;-68
2023/09/21 00:20:43;;;;;;;5.65;3.47;;;15.70;99.90;;;;;;4896934;29;20068;-68
2023/09/21 00:23:10;;;;;;;5.18;3.67;;;15.70;99.90;;;;;;4890566;29;20081;-68
2023/09/21 00:25:42;;;;;;;5.10;2.95;;;15.70;99.90;;;;;;4892085;29;20053;-68
2023/09/21 00:28:14;;;;;;;5.07;3.22;;;15.70;99.90;;;;;;4903669;29;20053;-68
2023/09/21 00:30:48;;;;;;;4.78;2.92;;;15.60;99.90;;;;;;4906466;29;20060;-68
2023/09/21 00:33:20;;;;;;;5.30;3.38;;;15.50;99.90;;;;;;4892790;29;20117;-68
2023/09/21 00:35:53;;;;;;;4.45;2.95;;;15.40;99.90;;;;;;4885966;29;20478;-68
2023/09/21 00:38:21;;;;;;;4.82;3.05;;;15.40;99.90;;;;;;4903742;29;20123;-68
2023/09/21 00:40:57;;;;;;;4.35;3.05;;;15.30;99.90;;;;;;4893117;29;20047;-71
2023/09/21 00:43:29;;;;;;;3.35;2.85;;;15.30;99.90;;;;;;4902755;29;20056;-68
2023/09/21 00:46:03;;;;;;;4.90;3.10;;;15.30;99.90;;;;;;4897993;29;20141;-68
2023/09/21 00:48:38;;;;;;;5.82;2.90;;;15.30;99.90;;;;;;4883554;29;20064;-68
2023/09/21 00:51:12;;;;;;;5.18;3.25;;;15.20;99.90;;;;;;4890446;29;20101;-68
2023/09/21 00:53:45;;;;;;;;;;;15.10;99.90;;;;;;4901340;29;20543;-68
2023/09/21 00:56:18;;;;;;;4.07;2.92;;;15.10;99.90;;;;;;4903025;29;20311;-68
2023/09/21 00:58:49;;;;;;;3.97;2.35;;;15.10;99.90;;;;;;4903989;29;20056;-68
2023/09/21 01:01:24;;;;;;;3.50;2.75;;;15.00;99.90;;;;;;4902961;29;20125;-68
2023/09/21 01:03:59;;;;;;;3.25;2.88;;;15.00;99.90;;;;;;4871088;29;20056;-68
2023/09/21 01:06:26;;;;;;;5.43;3.40;;;15.00;99.90;;;;;;4904276;29;20048;-68
2023/09/21 01:08:54;;;;;;;3.88;2.80;;;15.00;99.90;;;;;;4894215;29;20045;-68
2023/09/21 01:11:26;;;;;;;3.33;2.63;;;14.90;99.90;;;;;;4885399;29;20053;-68
2023/09/21 01:13:58;;;;;;;6.72;2.90;;;14.90;99.90;;;;;;4902053;29;20052;-68
2023/09/21 01:16:30;;;;;;;3.55;2.80;;;14.90;99.90;;;;;;4888034;29;20101;-68
2023/09/21 01:19:02;;;;;;;5.47;3.10;;;14.90;99.90;;;;;;4899441;29;20055;-68
2023/09/21 01:21:40;;;;;;;4.00;3.10;;;14.80;99.90;;;;;;4902274;29;20044;-68
2023/09/21 01:24:13;;;;;;;4.03;2.78;;;14.80;99.90;;;;;;4891260;29;20087;-68
2023/09/21 01:26:40;;;;;;;4.50;2.58;;;14.90;99.90;;;;;;4904465;29;20136;-68
2023/09/21 01:29:13;;;;;;;3.13;2.83;;;14.90;99.90;;;;;;4893261;29;20068;-68
2023/09/21 01:31:45;;;;;;;5.55;3.38;;;14.90;99.90;;;;;;4903031;29;20147;-68
2023/09/21 01:34:12;;;;;;;5.93;2.95;;;14.90;99.90;;;;;;4888196;29;20124;-68
2023/09/21 01:36:39;;;;;;;5.00;2.83;;;14.90;99.90;;;;;;4885863;29;20069;-68
2023/09/21 01:39:12;;;;;;;4.80;3.00;;;14.90;99.90;;;;;;4881249;29;20045;-68
2023/09/21 01:41:41;;;;;;;4.07;3.22;;;14.90;99.90;;;;;;4886508;29;20041;-68
2023/09/21 01:44:14;;;;;;;4.10;3.60;;;14.80;99.90;;;;;;4886157;29;20490;-68
2023/09/21 01:46:41;;;;;;;5.82;3.15;;;14.80;99.90;;;;;;4895642;29;20043;-68
2023/09/21 01:49:13;;;;;;;7.07;3.20;;;14.70;99.90;;;;;;4869862;29;20059;-68
2023/09/21 01:51:40;;;;;;;3.75;3.20;;;14.70;99.90;;;;;;4902956;29;20041;-68
2023/09/21 01:54:11;;;;;;;5.50;3.42;;;14.70;99.90;;;;;;4886907;29;20052;-67
2023/09/21 01:56:43;;;;;;;4.35;3.20;;;14.70;99.90;;;;;;4899029;29;20056;-68
2023/09/21 01:59:15;;;;;;;4.78;3.17;;;14.70;99.90;;;;;;4889310;29;20303;-67
2023/09/21 02:01:50;;;;;;;4.68;3.20;;;14.70;99.90;;;;;;4886777;29;20047;-68
2023/09/21 02:04:22;;;;;;;4.60;3.30;;;14.60;99.90;;;;;;4902826;29;20045;-68
2023/09/21 02:06:54;;;;;;;4.65;2.90;;;14.60;99.90;;;;;;4907410;29;20052;-68
2023/09/21 02:09:25;;;;;;;3.33;2.90;;;14.60;99.90;;;;;;4897857;29;20049;-68
2023/09/21 02:11:52;;;;;;;3.42;2.78;;;14.70;99.90;;;;;;4867293;29;20473;-68
2023/09/21 02:14:24;;;;;;;3.45;2.80;;;14.70;99.90;;;;;;4886236;29;20054;-68
2023/09/21 02:16:51;;;;;;;8.98;2.90;;;14.60;99.90;;;;;;4901295;29;20071;-68
2023/09/21 02:19:23;;;;;;;4.03;2.80;;;14.60;99.90;;;;;;4873021;29;20047;-70
2023/09/21 02:21:55;;;;;;;3.38;2.65;;;14.50;99.90;;;;;;4895968;29;20056;-70
2023/09/21 02:24:30;;;;;;;3.45;2.88;;;14.50;99.90;;;;;;4902287;29;20120;-70
2023/09/21 02:27:03;;;;;;;5.47;2.72;;;14.50;99.90;;;;;;4904149;29;20416;-70
2023/09/21 02:29:40;;;;;;;3.45;2.67;;;14.40;99.90;;;;;;4902513;29;20127;-69
2023/09/21 02:32:11;;;;;;;4.70;2.58;;;14.40;99.90;;;;;;4886683;29;20051;-69
2023/09/21 02:34:38;;;;;;;2.92;2.42;;;14.40;99.90;;;;;;4903730;29;20513;-70
2023/09/21 02:37:06;;;;;;;3.03;2.20;;;14.40;99.90;;;;;;4884561;29;20370;-69
2023/09/21 02:39:33;;;;;;;3.00;2.70;;;14.40;99.90;;;;;;4900779;29;20043;-69
2023/09/21 02:42:08;;;;;;;3.22;2.67;;;14.40;99.90;;;;;;4877832;29;20067;-69
2023/09/21 02:44:40;;;;;;;3.33;2.20;;;14.30;99.90;;;;;;4894268;29;20059;-68
2023/09/21 02:47:12;;;;;;;4.20;2.10;;;14.30;99.90;;;;;;4878815;29;20037;-68
2023/09/21 02:49:44;;;;;;;3.17;2.67;;;14.30;99.90;;;;;;4902533;29;20049;-68
2023/09/21 02:52:16;;;;;;;3.05;2.58;;;14.30;99.90;;;;;;4887769;29;20053;-70
2023/09/21 02:54:43;;;;;;;3.97;2.40;;;14.30;99.90;;;;;;4901367;29;20570;-70
2023/09/21 02:57:12;;;;;;;3.53;2.90;;;14.30;99.90;;;;;;4889059;29;20103;-70
2023/09/21 02:59:43;;;;;;;;;;;14.20;99.90;;;;;;4883998;29;20518;-69
2023/09/21 03:02:16;;;;;;;5.07;2.13;;;14.20;99.90;;;;;;4888105;29;20460;-67
2023/09/21 03:04:45;;;;;;;3.83;2.45;;;14.30;99.90;;;;;;4903304;29;20084;-70
2023/09/21 03:07:18;;;;;;;5.00;2.42;;;14.30;99.90;;;;;;4889630;29;20140;-69
2023/09/21 03:09:51;;;;;;;6.15;2.95;;;14.30;99.90;;;;;;4886481;29;20052;-69
2023/09/21 03:12:23;;;;;;;3.45;2.58;;;14.30;99.90;;;;;;4899277;29;20048;-70
2023/09/21 03:14:56;;;;;;;5.32;2.58;;;14.20;99.90;;;;;;4893362;29;20057;-70
2023/09/21 03:17:23;;;;;;;2.45;2.10;;;14.20;99.90;;;;;;4886628;29;20049;-70
2023/09/21 03:19:55;;;;;;;4.85;2.50;;;14.20;99.90;;;;;;4882286;29;20060;-70
2023/09/21 03:22:28;;;;;;;5.75;2.70;;;14.30;99.90;;;;;;4903342;29;20786;-70
2023/09/21 03:25:00;;;;;;;5.50;2.65;;;14.30;99.90;;;;;;4907252;29;20068;-70
2023/09/21 03:27:32;;;;;;;5.35;3.20;;;14.30;99.90;;;;;;4901072;29;20056;-69
2023/09/21 03:30:06;;;;;;;6.25;2.88;;;14.30;99.90;;;;;;4905223;29;20600;-70
2023/09/21 03:32:41;;;;;;;4.13;2.55;;;14.30;99.90;;;;;;4892787;29;20061;-69
2023/09/21 03:35:14;;;;;;;4.15;2.70;;;14.40;99.90;;;;;;4904745;29;20055;-69
2023/09/21 03:37:50;;;;;;;5.00;2.58;;;14.40;99.90;;;;;;4895505;29;20049;-67
2023/09/21 03:40:25;;;;;;;3.42;3.08;;;14.40;99.90;;;;;;4897588;29;20101;-70
2023/09/21 03:42:57;;;;;;;6.32;2.60;;;14.40;99.90;;;;;;4890044;29;20081;-69
2023/09/21 03:45:30;;;;;;;4.68;2.72;;;14.30;99.90;;;;;;4879410;29;20502;-70
2023/09/21 03:48:05;;;;;;;4.00;2.70;;;14.40;99.90;;;;;;4876525;29;20053;-69
2023/09/21 03:50:40;;;;;;;5.00;2.85;;;14.40;99.90;;;;;;4885648;29;20056;-69
2023/09/21 03:53:14;;;;;;;11.38;6.05;;;14.30;99.90;;;;;;4903241;29;20048;-70
2023/09/21 03:55:47;;;;;;;8.18;4.85;;;14.30;99.90;;;;;;4869885;29;20047;-68
2023/09/21 03:58:15;;;;;;;5.85;4.22;;;14.30;99.90;;;;;;4875782;29;20131;-70
2023/09/21 04:00:47;;;;;;;6.00;3.60;;;14.30;99.90;;;;;;4891836;29;20039;-69
2023/09/21 04:03:19;;;;;;;7.47;3.15;;;14.30;99.90;;;;;;4893410;29;20141;-68
2023/09/21 04:06:03;;;;;;;6.18;3.00;;;14.30;99.90;;;;;;4888964;29;20687;-69
2023/09/21 04:08:34;;;;;;;4.22;3.20;;;14.30;99.90;;;;;;4904112;29;20053;-69
2023/09/21 04:11:06;;;;;;;6.00;3.53;;;14.30;99.90;;;;;;4908396;29;20052;-69
2023/09/21 04:13:39;;;;;;;3.13;2.83;;;14.30;99.90;;;;;;4899344;29;20057;-68
2023/09/21 04:16:11;;;;;;;3.20;2.90;;;14.30;99.90;;;;;;4901414;29;20063;-69
2023/09/21 04:18:43;;;;;;;5.82;3.10;;;14.20;99.90;;;;;;4911387;29;20048;-68
2023/09/21 04:21:09;;;;;;;6.13;3.75;;;14.20;99.90;;;;;;4868520;29;20060;-69
2023/09/21 04:23:43;;;;;;;8.85;3.40;;;14.10;99.90;;;;;;4894760;29;20123;-68
2023/09/21 04:26:16;;;;;;;6.82;4.30;;;14.10;99.90;;;;;;4905043;29;20037;-69
2023/09/21 04:28:48;;;;;;;4.30;3.10;;;14.00;99.90;;;;;;4895846;29;20420;-68
2023/09/21 04:31:20;;;;;;;4.57;3.30;;;13.90;99.90;;;;;;4910651;29;20536;-68
2023/09/21 04:33:53;;;;;;;4.93;3.40;;;13.90;99.90;;;;;;4892538;29;20498;-68
2023/09/21 04:36:20;;;;;;;3.72;3.25;;;13.90;99.90;;;;;;4880273;29;20550;-69
2023/09/21 04:38:48;;;;;;;6.55;3.55;;;13.80;99.90;;;;;;4911351;29;20262;-68
2023/09/21 04:41:21;;;;;;;6.65;3.10;;;13.80;99.90;;;;;;4898466;29;20131;-68
2023/09/21 04:43:54;;;;;;;4.65;3.63;;;13.80;99.90;;;;;;4900337;29;20041;-68
2023/09/21 04:46:21;;;;;;;4.82;2.78;;;13.80;99.90;;;;;;4908212;29;20041;-68
2023/09/21 04:48:49;;;;;;;4.57;3.17;;;13.80;99.90;;;;;;4907507;29;20036;-68
2023/09/21 04:51:17;;;;;;;6.47;3.10;;;13.80;99.90;;;;;;4895596;29;20048;-68
2023/09/21 04:53:49;;;;;;;7.70;3.35;;;13.80;99.90;;;;;;4879303;29;20140;-68
2023/09/21 04:56:21;;;;;;;5.72;3.75;;;13.80;99.90;;;;;;4906082;29;20083;-68
2023/09/21 04:58:55;;;;;;;14.18;3.58;;;13.90;99.90;;;;;;4901321;29;20475;-68
2023/09/21 05:01:27;;;;;;;12.07;4.07;;;13.90;99.90;;;;;;4894356;29;20048;-68
2023/09/21 05:04:00;;;;;;;5.53;3.10;;;13.80;99.90;;;;;;4890348;29;20129;-68
2023/09/21 05:06:32;;;;;;;3.45;2.97;;;13.80;99.90;;;;;;4892176;29;20059;-68
2023/09/21 05:09:04;;;;;;;3.17;2.83;;;13.70;99.90;;;;;;4905619;29;20119;-68
2023/09/21 05:11:38;;;;;;;8.65;3.15;;;13.70;99.90;;;;;;4900783;29;20044;-68
2023/09/21 05:14:06;;;;;;;5.93;2.83;;;13.80;99.90;;;;;;4907092;29;20048;-68
2023/09/21 05:16:38;;;;;;;5.17;3.33;;;13.80;99.90;;;;;;4894177;29;20036;-67
2023/09/21 05:19:11;;;;;;;3.42;3.13;;;13.80;99.90;;;;;;4912032;29;20064;-68
2023/09/21 05:21:43;;;;;;;11.93;3.78;;;13.80;99.90;;;;;;4884553;29;20045;-68
2023/09/21 05:24:10;;;;;;;5.72;3.72;;;13.80;99.90;;;;;;4903246;29;20067;-66
2023/09/21 05:26:42;;;;;;;11.48;3.58;;;13.80;99.90;;;;;;4888618;29;20043;-68
2023/09/21 05:29:14;;;;;;;14.35;3.40;;;13.80;99.90;;;;;;4889089;29;20036;-68
2023/09/21 05:31:47;;;;;;;8.02;2.97;;;13.80;99.90;;;;;;4893339;29;20055;-68
2023/09/21 05:34:22;;;;;;;7.05;3.28;;;13.90;99.90;;;;;;4885443;29;20119;-68
2023/09/21 05:36:54;;;;;;;7.50;3.13;;;13.90;99.90;;;;;;4885035;29;20057;-68
2023/09/21 05:39:26;;;;;;;3.22;2.47;;;13.90;99.90;;;;;;4893098;29;20036;-68
2023/09/21 05:41:58;;;;;;;6.57;3.10;;;14.00;99.90;;;;;;4894953;29;20041;-68
2023/09/21 05:44:30;;;;;;;8.43;3.40;;;14.00;99.90;;;;;;4904426;29;20037;-68
2023/09/21 05:47:02;;;;;;;5.60;3.65;;;14.10;99.90;;;;;;4891262;29;20044;-68
2023/09/21 05:49:31;;;;;;;3.72;3.10;;;14.10;99.90;;;;;;4889058;29;20119;-68
2023/09/21 05:52:00;;;;;;;4.13;2.70;;;14.20;99.90;;;;;;4885587;29;20425;-68
2023/09/21 05:54:31;;;;;;;4.75;3.15;;;14.20;99.90;;;;;;4887189;29;20426;-68
2023/09/21 05:57:03;;;;;;;7.32;3.83;;;14.30;99.90;;;;;;4890274;29;20076;-68
2023/09/21 05:59:36;;;;;;;5.20;2.95;;;14.40;99.90;;;;;;4886891;29;20051;-68
2023/09/21 06:02:13;;;;;;;3.20;2.90;;;14.50;99.90;;;;;;4879646;29;20049;-68
2023/09/21 06:04:46;;;;;;;5.25;3.13;;;14.50;99.90;;;;;;4887522;29;20037;-68
2023/09/21 06:07:18;;;;;;;;;;;14.60;99.90;;;;;;4890008;29;20048;-68
2023/09/21 06:09:45;;;;;;;5.35;3.50;;;14.60;99.90;;;;;;4887167;29;20420;-68
2023/09/21 06:12:17;;;;;;;7.70;4.07;;;14.60;99.90;;;;;;4894165;29;20052;-68
2023/09/21 06:14:50;;;;;;;6.95;3.60;;;14.60;99.90;;;;;;4878967;29;20076;-68
2023/09/21 06:17:22;;;;;;;6.95;3.25;;;14.70;99.90;;;;;;4897340;29;20104;-68
2023/09/21 06:19:54;;;;;;;5.88;3.42;;;14.70;99.90;;;;;;4888149;29;20041;-68
2023/09/21 06:22:26;;;;;;;4.07;3.67;;;14.80;99.90;;;;;;4896638;29;20040;-68
2023/09/21 06:24:59;;;;;;;4.55;3.65;;;14.80;99.90;;;;;;4886124;29;20040;-68
2023/09/21 06:27:26;;;;;;;5.00;3.97;;;14.90;99.90;;;;;;4888961;29;20037;-69
2023/09/21 06:29:58;;;;;;;10.77;4.57;;;15.00;99.90;;;;;;4905791;29;20048;-68
2023/09/21 06:32:30;;;;;;;8.48;4.10;;;15.10;99.90;;;;;;4892411;29;20036;-68
2023/09/21 06:35:02;;;;;;;6.80;4.22;;;15.10;99.90;;;;;;4898901;29;20070;-68
2023/09/21 06:37:34;;;;;;;6.97;4.18;;;15.10;99.90;;;;;;4881961;29;20055;-68
2023/09/21 06:40:08;;;;;;;4.13;3.72;;;15.20;99.90;;;;;;4886896;29;20049;-68
2023/09/21 06:42:41;;;;;;;6.22;4.05;;;15.20;99.90;;;;;;4880902;29;20041;-68
2023/09/21 06:45:13;;;;;;;9.85;3.85;;;15.10;99.90;;;;;;4891958;29;20056;-68
2023/09/21 06:47:47;;;;;;;7.55;3.80;;;15.10;99.90;;;;;;4886209;29;20041;-68
2023/09/21 06:50:19;;;;;;;8.77;4.50;;;15.00;99.90;;;;;;4882512;29;20081;-68
2023/09/21 06:52:51;;;;;;;6.05;4.13;;;15.00;99.90;;;;;;4884442;29;20049;-68
2023/09/21 06:55:18;;;;;;;4.97;4.47;;;15.00;99.90;;;;;;4888963;29;20573;-68
2023/09/21 06:57:50;;;;;;;12.68;5.45;;;15.00;99.90;;;;;;4898205;29;20052;-68
2023/09/21 07:00:22;;;;;;;6.72;4.80;;;15.00;99.90;;;;;;4891097;29;20044;-68
2023/09/21 07:02:54;;;;;;;8.85;5.20;;;15.10;99.90;;;;;;4874618;29;20049;-68
2023/09/21 07:05:27;;;;;;;9.02;5.03;;;15.10;99.90;;;;;;4892771;29;20040;-68
2023/09/21 07:07:59;;;;;;;9.18;5.00;;;15.20;99.90;;;;;;4894884;29;20045;-68
2023/09/21 07:10:30;;;;;;;9.10;5.38;;;15.20;99.90;;;;;;4873756;29;20056;-68
2023/09/21 07:13:03;;;;;;;6.43;5.18;;;15.20;99.90;;;;;;4894185;29;20041;-68
2023/09/21 07:15:30;;;;;;;6.70;5.13;;;15.30;99.90;;;;;;4892365;29;20040;-68
2023/09/21 07:17:58;;;;;;;5.40;4.90;;;15.30;99.90;;;;;;4889634;29;20072;-68
2023/09/21 07:20:30;;;;;;;7.07;5.10;;;15.40;99.90;;;;;;4901255;29;20064;-68
2023/09/21 07:23:02;;;;;;;6.65;4.65;;;15.50;99.90;;;;;;4888780;29;20053;-68
2023/09/21 07:25:34;;;;;;;4.70;3.92;;;15.60;99.90;;;;;;4888261;29;20049;-68
2023/09/21 07:28:01;;;;;;;4.85;4.40;;;15.70;99.90;;;;;;4872180;29;20548;-68
2023/09/21 07:30:35;;;;;;;4.97;4.57;;;15.70;99.90;;;;;;4904286;29;20051;-68
2023/09/21 07:33:08;;;;;;;6.25;5.55;;;15.90;99.90;;;;;;4891319;29;20123;-68
2023/09/21 07:35:41;;;;;;;6.93;5.88;;;16.00;99.90;;;;;;4903491;29;20144;-68
2023/09/21 07:38:13;;;;;;;6.30;5.68;;;16.10;99.90;;;;;;4892232;29;20044;-68
2023/09/21 07:40:45;;;;;;;10.00;5.07;;;16.20;99.90;;;;;;4887890;29;20036;-68
2023/09/21 07:43:17;;;;;;;5.93;5.32;;;16.30;99.90;;;;;;4892215;29;20551;-68
2023/09/21 07:45:50;;;;;;;6.05;5.45;;;16.40;99.90;;;;;;4892243;29;20041;-68
2023/09/21 07:48:25;;;;;;;7.30;5.75;;;16.50;99.90;;;;;;4891841;29;20124;-68
2023/09/21 07:50:57;;;;;;;9.25;5.43;;;16.70;99.90;;;;;;4898680;29;20067;-68
2023/09/21 07:53:29;;;;;;;8.15;6.10;;;16.80;99.90;;;;;;4887513;29;20416;-68
2023/09/21 07:56:01;;;;;;;7.15;6.05;;;16.90;99.90;;;;;;4890761;29;20132;-68
2023/09/21 07:58:33;;;;;;;5.82;5.25;;;17.00;99.90;;;;;;4899556;29;20488;-68
2023/09/21 08:01:05;;;;;;;8.63;6.18;;;17.10;99.90;;;;;;4873734;29;20430;-68
2023/09/21 08:03:37;;;;;;;9.25;6.72;;;17.20;99.90;;;;;;4891769;29;20048;-67
2023/09/21 08:06:04;;;;;;;8.52;5.85;;;17.30;99.90;;;;;;4887940;29;20069;-68
2023/09/21 08:08:36;;;;;;;7.05;6.35;;;17.40;99.90;;;;;;4874781;29;20049;-68
2023/09/21 08:11:08;;;;;;;7.72;6.93;;;17.60;99.90;;;;;;4890827;29;20053;-68
2023/09/21 08:13:39;;;;;;;10.80;6.38;;;17.70;99.90;;;;;;4888431;29;20060;-67
2023/09/21 08:16:13;;;;;;;7.05;6.35;;;17.80;99.90;;;;;;4892150;29;20106;-68
2023/09/21 08:18:45;;;;;;;6.72;6.13;;;17.90;99.90;;;;;;4890353;29;20051;-69
2023/09/21 08:21:17;;;;;;;9.63;7.18;;;18.00;99.90;;;;;;4892869;29;20060;-68
2023/09/21 08:23:49;;;;;;;7.72;6.93;;;18.20;99.90;;;;;;4894350;29;20052;-68
2023/09/21 08:26:20;;;;;;;8.55;6.93;;;18.30;99.90;;;;;;4885497;29;20060;-67
2023/09/21 08:28:53;;;;;;;7.57;6.78;;;18.40;99.90;;;;;;4896250;29;20053;-68
2023/09/21 08:31:25;;;;;;;8.23;7.38;;;18.50;99.90;;;;;;4897117;29;20064;-68
2023/09/21 08:33:58;;;;;;;9.93;8.30;;;18.60;99.90;;;;;;4890815;29;20045;-68
2023/09/21 08:36:36;;;;;;;8.90;7.65;;;18.70;99.90;;;;;;4892014;29;20131;-68
2023/09/21 08:39:04;;;;;;;7.95;7.13;;;18.80;99.90;;;;;;4891117;29;20131;-68
2023/09/21 08:41:40;;;;;;;7.07;6.38;;;18.80;99.90;;;;;;4893655;29;20085;-68
2023/09/21 08:44:12;;;;;;;7.95;7.15;;;18.90;99.90;;;;;;4902349;29;20532;-68
2023/09/21 08:46:48;;;;;;;11.05;7.05;;;19.10;99.90;;;;;;4891789;29;20040;-68
2023/09/21 08:49:21;;;;;;;8.18;6.45;;;19.20;99.90;;;;;;4887750;29;20059;-68
2023/09/21 08:51:52;;;;;;;8.50;7.55;;;19.20;99.90;;;;;;4890417;29;20040;-68
2023/09/21 08:54:24;;;;;;;7.93;5.78;;;19.40;99.90;;;;;;4895181;29;20041;-68
2023/09/21 08:56:55;;;;;;;6.57;5.75;;;19.50;99.90;;;;;;4886715;29;20052;-68
2023/09/21 08:59:24;;;;;;;8.52;6.80;;;19.60;99.90;;;;;;4889792;29;20041;-68
2023/09/21 09:01:51;;;;;;;8.18;7.28;;;19.70;99.90;;;;;;4883667;29;20064;-68
2023/09/21 09:04:23;;;;;;;13.55;7.45;;;19.80;99.90;;;;;;4906095;29;20116;-68
2023/09/21 09:06:56;;;;;;;8.65;7.45;;;19.90;99.90;;;;;;4891864;29;20041;-68
2023/09/21 09:09:23;;;;;;;8.05;7.25;;;20.00;99.90;;;;;;4887228;29;20055;-68
2023/09/21 09:11:56;;;;;;;10.32;7.20;;;20.10;99.90;;;;;;4894689;29;20049;-68
2023/09/21 09:14:29;;;;;;;7.40;6.70;;;20.20;99.90;;;;;;4889973;29;20455;-68
2023/09/21 09:17:12;;;;;;;7.60;6.72;;;20.30;99.90;;;;;;4885763;29;20064;-68
2023/09/21 09:19:39;;;;;;;7.40;6.70;;;20.40;99.90;;;;;;4889190;29;20068;-68
2023/09/21 09:22:11;;;;;;;8.20;7.43;;;20.50;99.90;;;;;;4903245;29;20048;-68
2023/09/21 09:24:37;;;;;;;9.95;6.93;;;20.60;99.90;;;;;;4885144;29;20055;-68
2023/09/21 09:27:09;;;;;;;7.65;6.88;;;20.80;99.90;;;;;;4901465;29;20052;-68
2023/09/21 09:29:54;;;;;;;8.10;7.07;;;20.90;99.90;;;;;;4881651;29;20067;-69
2023/09/21 09:32:35;;;;;;;7.72;6.88;;;21.00;99.90;;;;;;4892036;29;20053;-68
2023/09/21 09:35:14;;;;;;;10.43;6.25;;;21.10;99.90;;;;;;4894200;29;20243;-68
2023/09/21 09:37:47;;;;;;;6.63;5.90;;;21.20;99.90;;;;;;4888309;29;20050;-68
2023/09/21 09:40:23;;;;;;;8.90;5.77;;;21.30;99.90;;;;;;4891292;29;20101;-68
2023/09/21 09:42:57;;;;;;;5.93;5.28;;;21.40;99.90;;;;;;4891056;29;20478;-68
2023/09/21 09:45:31;;;;;;;5.68;5.13;;;21.50;99.90;;;;;;4896723;29;20037;-68
2023/09/21 09:48:02;;;;;;;6.13;4.72;;;21.60;99.90;;;;;;4899306;29;20056;-68
2023/09/21 09:50:36;;;;;;;5.53;4.82;;;21.70;99.90;;;;;;4891266;29;20041;-68
2023/09/21 09:53:07;;;;;;;4.78;4.38;;;21.90;99.90;;;;;;4892464;29;20119;-68
2023/09/21 09:55:35;;;;;;;5.15;3.40;;;22.00;99.90;;;;;;4891794;29;20055;-68
2023/09/21 09:58:03;;;;;;;5.40;3.80;;;22.20;99.90;;;;;;4882893;29;20040;-68
2023/09/21 10:00:31;;;;;;;4.35;3.55;;;22.30;99.90;;;;;;4871110;29;20136;-68
2023/09/21 10:03:04;;;;;;;6.53;3.30;;;22.40;99.90;;;;;;4890001;29;20049;-68
2023/09/21 10:05:36;;;;;;;5.30;3.20;;;22.50;99.90;;;;;;4890786;29;20052;-68
2023/09/21 10:08:10;;;;;;;4.47;3.38;;;22.50;99.90;;;;;;4867288;29;20513;-68
2023/09/21 10:10:55;;;;;;;4.63;4.22;;;22.60;99.90;;;;;;4891166;29;20058;-68
2023/09/21 10:13:28;;;;;;;3.13;2.83;;;22.70;99.90;;;;;;4903621;29;20132;-68
2023/09/21 10:16:03;;;;;;;3.30;3.00;;;22.70;99.90;;;;;;4888696;29;20409;-68
2023/09/21 10:18:37;;;;;;;6.70;3.30;;;22.80;99.90;;;;;;4893357;29;20501;-68
2023/09/21 10:21:22;;;;;;;2.90;2.60;;;22.90;99.90;;;;;;4883009;29;20128;-68
2023/09/21 10:24:13;;;;;;;5.63;3.35;;;22.90;99.90;;;;;;4884429;29;20045;-68
2023/09/21 10:26:46;;;;;;;2.80;2.60;;;23.00;99.90;;;;;;4907158;29;20131;-68
2023/09/21 10:29:28;;;;;;;3.67;3.33;;;23.10;99.90;;;;;;4884579;29;20041;-68
2023/09/21 10:32:00;;;;;;;3.50;3.20;;;23.10;99.90;;;;;;4882822;29;20080;-68
2023/09/21 10:34:32;;;;;;;6.70;3.10;;;23.20;99.90;;;;;;4880485;29;20509;-68
2023/09/21 10:37:15;;;;;;;4.75;3.83;;;23.30;99.90;;;;;;4888078;29;20041;-68
2023/09/21 10:39:57;;;;;;;4.32;2.75;;;23.40;99.90;;;;;;4900347;29;20048;-68
2023/09/21 10:42:33;;;;;;;3.72;2.45;;;23.50;99.90;;;;;;4898370;29;20045;-68
2023/09/21 10:45:09;;;;;;;3.70;2.58;;;23.60;99.90;;;;;;4887797;29;20059;-68
2023/09/21 10:47:50;;;;;;;4.28;3.40;;;23.70;99.90;;;;;;4886526;29;20529;-68
2023/09/21 10:50:23;;;;;;;5.45;2.67;;;23.80;99.90;;;;;;4889523;29;20530;-67
2023/09/21 10:52:57;;;;;;;3.20;2.75;;;23.90;99.90;;;;;;4888915;29;20050;-69
2023/09/21 10:55:29;;;;;;;3.63;3.05;;;24.00;99.90;;;;;;4887698;29;20156;-68
2023/09/21 10:58:02;;;;;;;4.10;3.05;;;24.10;99.90;;;;;;4884041;29;20052;-68
2023/09/21 11:00:34;;;;;;;4.15;3.75;;;24.20;99.90;;;;;;4908641;29;20056;-68
2023/09/21 11:03:05;;;;;;;3.88;3.58;;;24.30;99.90;;;;;;4889951;29;20059;-69
2023/09/21 11:05:32;;;;;;;4.43;3.63;;;24.40;99.90;;;;;;4881332;29;20044;-68
2023/09/21 11:08:06;;;;;;;4.40;3.45;;;24.50;99.90;;;;;;4868053;29;20063;-68
2023/09/21 11:10:42;;;;;;;3.67;2.60;;;24.50;99.90;;;;;;4904406;29;20048;-68
2023/09/21 11:13:09;;;;;;;4.10;2.78;;;24.60;99.90;;;;;;4901609;29;20748;-67
2023/09/21 11:15:41;;;;;;;6.60;3.85;;;24.70;99.90;;;;;;4884740;29;20140;-68
2023/09/21 11:18:14;;;;;;;4.45;3.10;;;24.70;99.90;;;;;;4892110;29;20057;-68
2023/09/21 11:20:47;;;;;;;4.40;2.90;;;24.70;99.90;;;;;;4873760;29;20088;-68
2023/09/21 11:23:21;;;;;;;3.65;2.70;;;24.80;99.90;;;;;;4901420;29;20055;-68
2023/09/21 11:25:52;;;;;;;;;;;24.80;99.90;;;;;;4896921;29;20040;-68
2023/09/21 11:28:24;;;;;;;3.45;2.42;;;24.90;99.90;;;;;;4902088;29;19995;-68
2023/09/21 11:30:52;;;;;;;3.75;3.40;;;25.00;99.90;;;;;;4887184;29;20116;-68
2023/09/21 11:33:20;;;;;;;4.88;2.95;;;25.10;99.90;;;;;;4895940;29;20490;-68
2023/09/21 11:35:47;;;;;;;2.95;2.40;;;25.20;99.90;;;;;;4891202;29;20044;-69
2023/09/21 11:38:20;;;;;;;4.53;2.38;;;25.20;99.90;;;;;;4888599;29;20040;-68
2023/09/21 11:40:53;;;;;;;4.03;2.45;;;25.30;99.90;;;;;;4900423;29;20597;-68
2023/09/21 11:43:22;;;;;;;4.47;2.67;;;25.50;99.90;;;;;;4885579;29;20044;-68
2023/09/21 11:45:53;;;;;;;3.60;2.75;;;25.60;99.90;;;;;;4887330;29;20143;-68
2023/09/21 11:48:29;;;;;;;2.85;2.30;;;25.70;99.90;;;;;;4892981;29;20417;-68
2023/09/21 11:51:04;;;;;;;3.78;1.98;;;25.70;99.90;;;;;;4879637;29;20409;-69
2023/09/21 11:53:31;;;;;;;5.15;2.35;;;25.80;99.90;;;;;;4893481;29;20048;-68
2023/09/21 11:55:58;;;;;;;4.75;2.38;;;25.80;99.90;;;;;;4905692;29;20053;-68
2023/09/21 11:58:31;;;;;;;4.18;2.50;;;25.90;99.90;;;;;;4890163;29;20105;-68
2023/09/21 12:03:37;;;;;;;3.00;1.70;;;26.10;99.90;;;;;;4893863;29;20049;-68
2023/09/21 12:06:09;;;;;;;3.50;2.40;;;26.10;99.90;;;;;;4863363;29;20056;-68
2023/09/21 12:08:41;;;;;;;2.72;2.30;;;26.10;99.90;;;;;;4890562;29;20047;-68
2023/09/21 12:11:13;;;;;;;7.55;3.35;;;26.10;99.90;;;;;;4900997;29;20068;-68
2023/09/21 12:13:45;;;;;;;12.23;5.82;;;26.20;99.90;;;;;;4902809;29;20063;-68
2023/09/21 12:16:17;;;;;;;12.65;6.63;;;26.30;99.90;;;;;;4879014;29;20532;-68
2023/09/21 12:18:44;;;;;;;11.10;4.07;;;26.40;99.90;;;;;;4891255;29;20518;-68
2023/09/21 12:21:20;;;;;;;4.90;2.40;;;26.40;99.90;;;;;;4893225;29;20040;-68
2023/09/21 12:23:52;;;;;;;5.75;2.70;;;26.40;99.90;;;;;;4892702;29;20739;-68
2023/09/21 12:26:24;;;;;;;8.18;2.80;;;26.40;99.90;;;;;;4893988;29;20049;-68
2023/09/21 12:28:53;;;;;;;3.85;2.13;;;26.50;99.90;;;;;;4891350;29;20040;-68
2023/09/21 12:31:25;;;;;;;3.30;1.98;;;26.60;99.90;;;;;;4884840;29;20076;-68
2023/09/21 12:33:57;;;;;;;7.17;3.03;;;26.50;99.90;;;;;;4879552;29;20630;-67
2023/09/21 12:36:29;;;;;;;5.35;2.28;;;26.50;99.90;;;;;;4895645;29;20510;-67
2023/09/21 12:38:56;;;;;;;3.50;2.10;;;26.60;99.90;;;;;;4875351;29;20588;-68
2023/09/21 12:41:23;;;;;;;4.00;2.17;;;26.60;99.90;;;;;;4885314;29;20556;-68
2023/09/21 12:43:55;;;;;;;3.47;2.10;;;26.60;99.90;;;;;;4905155;29;20045;-68
2023/09/21 12:46:29;;;;;;;4.35;2.20;;;26.60;99.90;;;;;;4890824;29;20041;-68
2023/09/21 12:48:56;;;;;;;7.72;2.30;;;26.70;99.90;;;;;;4892942;29;20505;-68
2023/09/21 12:51:29;;;;;;;17.65;6.50;;;26.90;99.90;;;;;;4892417;29;20120;-67
2023/09/21 12:54:02;;;;;;;6.53;3.20;;;27.00;99.90;;;;;;4878320;29;20045;-67
2023/09/21 12:56:34;;;;;;;9.63;2.42;;;27.00;99.90;;;;;;4905736;29;20044;-68
2023/09/21 12:59:06;;;;;;;3.00;2.30;;;27.00;99.90;;;;;;4901522;29;20056;-67
2023/09/21 13:01:39;;;;;;;3.70;2.13;;;27.10;99.90;;;;;;4890983;29;20056;-67
2023/09/21 13:04:06;;;;;;;2.42;1.83;;;27.20;99.90;;;;;;4888064;29;20047;-68
2023/09/21 13:06:38;;;;;;;3.43;2.20;;;27.20;99.90;;;;;;4889677;29;20131;-68
2023/09/21 13:09:12;;;;;;;5.53;2.45;;;27.30;99.90;;;;;;4891762;29;20044;-68
2023/09/21 13:11:44;;;;;;;4.80;2.38;;;27.40;99.90;;;;;;4906718;29;20045;-67
2023/09/21 13:14:16;;;;;;;3.65;2.55;;;27.40;99.90;;;;;;4879575;29;20308;-68